Middlebury Center, Pennsylvania
Current Conditions -  °F | °C
As of 10:55 AM on Wednesday 28 Jan 2015 (Local Time) from KN38 Reporting Station
Clear Clear  
Wind Chill:   Ceiling: Unl
Heat Index: 19°   Visibility: 10mi
Dew Point: -4°   Wind: 14mph
Humidity: 36%   Direction: 320°NW
Pressure: 30.15"   Gusts: NA
Location:  41.84°N, 77.27°W
Report Text: KN38 281555Z AUTO 32012KT 290V350 10SM CLR M07/M20 A3015 RMK AO2
Loading
Personal Weather Stations






























Interactive Weather Map New forecast layout! Learn more

10-Day Weather Forecast

Advertisements
Track Severe Weather on mobile